Wishaw, United Kingdom
Current Conditions -  °F | °C
As of 10:50 PM on Saturday 25 Oct 2014 (Local Time) from EGPF Reporting Station
Light Rain Light Rain  
Wind Chill: 52°   Ceiling: 1800
Heat Index: 52°   Visibility: 4mi
Dew Point: 48°   Wind: 20mph
Humidity: 88%   Direction: 220°SW
Pressure: 29.71"   Gusts: NA
Location:  55.77°N, 3.92°W
Report Text: EGPF 252150Z AUTO 22017KT 7000 -RA BKN018/// //////TCU 11/09 Q1006
Loading
Personal Weather Stations






























Interactive Weather Map
Tropical Storm Tracking
New forecast layout! Learn more

10-Day Weather Forecast

Advertisements
Track Severe Weather on mobile